Time;durP1;ratioP1;P1;durP2;ratioP2;P2;SDS_P1;SDS_P2;PMS_P1;PMS_P2;Temp;Humidity;BMP_temperature;BMP_pressure;BME280_temperature;BME280_humidity;BME280_pressure;Samples;Min_cycle;Max_cycle;Signal;HPM_P1;HPM_P2
2023/03/05 06:00:22;;;;;;;;;17.33;11.33;;;;;8.10;61.18;101817.66;5939758;23;45700;-48
2023/03/05 06:02:47;;;;;;;;;16.00;13.33;;;;;8.08;61.49;101818.59;4959338;28;45300;-53
2023/03/05 06:05:13;;;;;;;;;11.67;11.67;;;;;8.07;61.49;101809.78;4953512;28;45220;-53
2023/03/05 06:07:39;;;;;;;;;18.25;13.25;;;;;8.05;61.54;101814.22;4960412;28;46171;-52
2023/03/05 06:10:05;;;;;;;;;15.00;11.00;;;;;8.02;61.46;101813.47;4959806;28;45288;-53
2023/03/05 06:12:30;;;;;;;;;17.33;12.67;;;;;8.02;62.02;101816.09;4960001;28;45377;-52
2023/03/05 06:14:56;;;;;;;;;13.00;10.67;;;;;8.03;61.46;101815.16;4957846;28;64863;-51
2023/03/05 06:17:21;;;;;;;;;15.00;12.33;;;;;8.00;61.75;101813.47;4954761;28;46199;-53
2023/03/05 06:19:46;;;;;;;;;17.67;13.00;;;;;7.98;61.70;101815.28;4956470;28;67904;-53
2023/03/05 06:22:12;;;;;;;;;13.33;12.33;;;;;7.97;61.76;101805.59;4953846;28;67843;-52
2023/03/05 06:24:37;;;;;;;;;13.00;10.00;;;;;7.96;61.59;101809.16;4959037;28;65954;-53
2023/03/05 06:27:04;;;;;;;;;11.67;11.67;;;;;7.94;61.69;101811.84;4959707;28;45366;-50
2023/03/05 06:29:29;;;;;;;;;19.33;12.00;;;;;7.95;61.76;101813.59;4953170;28;45401;-52
2023/03/05 06:31:55;;;;;;;;;11.33;10.33;;;;;7.95;61.55;101810.06;4952231;28;45521;-51
2023/03/05 06:34:20;;;;;;;;;20.33;11.67;;;;;7.97;61.79;101818.00;4952291;28;69346;-53
2023/03/05 06:36:45;;;;;;;;;17.67;15.33;;;;;7.99;61.42;101814.41;4959042;28;46070;-50
2023/03/05 06:39:11;;;;;;;;;10.00;9.00;;;;;8.01;61.98;101809.91;4956840;28;70655;-50
2023/03/05 06:41:36;;;;;;;;;20.00;15.00;;;;;8.03;61.49;101810.75;4947436;28;45665;-52
2023/03/05 06:44:02;;;;;;;;;20.00;17.25;;;;;8.08;61.58;101808.00;4951565;28;66599;-50
2023/03/05 06:46:33;;;;;;;;;16.00;14.33;;;;;8.09;61.43;101810.59;4951468;28;47106;-53
2023/03/05 06:49:00;;;;;;;;;11.00;11.00;;;;;8.11;61.84;101807.94;4958356;28;45484;-52
2023/03/05 06:51:31;;;;;;;;;19.33;14.33;;;;;8.11;61.40;101802.63;4951753;28;45378;-52
2023/03/05 06:54:08;;;;;;;;;12.33;12.00;;;;;8.12;61.69;101807.00;4954197;28;45512;-50
2023/03/05 06:56:35;;;;;;;;;15.33;10.33;;;;;8.16;61.45;101807.81;4949602;28;45488;-53
2023/03/05 06:59:00;;;;;;;;;18.67;16.00;;;;;8.19;61.53;101807.75;4954045;28;45336;-51
2023/03/05 07:01:25;;;;;;;;;22.33;18.33;;;;;8.23;61.38;101804.13;4957124;28;66193;-50
2023/03/05 07:03:52;;;;;;;;;16.00;13.00;;;;;8.24;61.70;101817.31;4959242;28;45393;-53
2023/03/05 07:06:19;;;;;;;;;24.67;15.67;;;;;8.25;61.30;101807.59;4959576;28;45315;-53
2023/03/05 07:08:45;;;;;;;;;12.00;11.00;;;;;8.28;61.30;101805.75;4953965;28;45369;-53
2023/03/05 07:11:13;;;;;;;;;17.00;16.00;;;;;8.33;61.41;101802.09;4959056;28;45314;-52
2023/03/05 07:13:38;;;;;;;;;14.67;13.33;;;;;8.34;61.42;101803.84;4953882;28;45460;-53
2023/03/05 07:16:11;;;;;;;;;20.67;14.33;;;;;8.37;61.49;101799.34;4951920;28;46318;-52
2023/03/05 07:18:36;;;;;;;;;21.67;17.33;;;;;8.41;61.24;101802.81;4952566;28;45551;-49
2023/03/05 07:21:06;;;;;;;;;16.33;15.67;;;;;8.46;61.21;101800.03;4952707;28;45346;-51
2023/03/05 07:23:32;;;;;;;;;13.33;13.33;;;;;8.48;61.22;101800.91;4959238;28;45355;-50
2023/03/05 07:26:03;;;;;;;;;16.33;13.67;;;;;8.52;61.04;101797.25;4957424;28;46165;-52
2023/03/05 07:28:28;;;;;;;;;16.33;12.33;;;;;8.57;61.03;101796.22;4952702;28;45421;-51
2023/03/05 07:30:59;;;;;;;;;14.33;14.33;;;;;8.61;60.89;101803.16;4958049;28;45423;-49
2023/03/05 07:33:25;;;;;;;;;21.33;13.67;;;;;8.64;60.64;101807.53;4953297;28;45490;-52
2023/03/05 07:35:50;;;;;;;;;17.33;16.00;;;;;8.68;60.64;101809.22;4957175;28;45827;-53
2023/03/05 07:38:15;;;;;;;;;18.67;14.67;;;;;8.73;60.65;101806.44;4953041;28;45543;-51
2023/03/05 07:40:41;;;;;;;;;15.67;14.33;;;;;8.74;60.60;101805.53;4949897;28;66474;-50
2023/03/05 07:43:06;;;;;;;;;21.33;17.67;;;;;8.74;60.55;101805.53;4944814;28;68590;-50
2023/03/05 07:45:31;;;;;;;;;16.33;15.33;;;;;8.74;60.39;101808.19;4952166;28;47900;-51
2023/03/05 07:47:57;;;;;;;;;18.33;17.33;;;;;8.75;60.65;101809.91;4957170;28;45338;-49
2023/03/05 07:50:23;;;;;;;;;20.00;13.33;;;;;8.75;60.70;101809.91;4952030;28;45814;-53
2023/03/05 07:52:48;;;;;;;;;18.00;17.00;;;;;8.77;60.55;101808.97;4948665;28;45655;-50
2023/03/05 07:55:14;;;;;;;;;20.33;16.33;;;;;8.78;60.48;101816.00;4955507;28;65688;-50
2023/03/05 07:57:39;;;;;;;;;23.33;18.67;;;;;8.83;60.31;101807.06;4952800;28;45353;-49
2023/03/05 08:00:06;;;;;;;;;19.67;18.33;;;;;8.87;60.49;101803.41;4950444;28;62973;-53
2023/03/05 08:02:32;;;;;;;;;18.33;18.33;;;;;8.96;60.34;101799.63;4958693;28;45224;-52
2023/03/05 08:04:57;;;;;;;;;24.33;18.33;;;;;9.03;60.13;101801.22;4952386;28;45942;-51
2023/03/05 08:07:22;;;;;;;;;21.67;18.00;;;;;9.07;59.98;101803.75;4957964;28;69226;-51
2023/03/05 08:09:48;;;;;;;;;20.33;15.33;;;;;9.12;59.84;101800.94;4955219;28;62689;-50
2023/03/05 08:12:13;;;;;;;;;24.00;20.00;;;;;9.16;59.95;101799.09;4961815;28;45313;-51
2023/03/05 08:14:38;;;;;;;;;23.67;17.33;;;;;9.19;59.76;101799.88;4953789;28;70421;-52
2023/03/05 08:17:04;;;;;;;;;21.67;19.33;;;;;9.20;59.48;101803.38;4949447;28;68108;-49
2023/03/05 08:19:31;;;;;;;;;16.67;13.67;;;;;9.19;59.67;101788.38;4961980;28;45365;-52
2023/03/05 08:21:56;;;;;;;;;20.00;18.33;;;;;9.22;59.58;101793.59;4949943;28;45554;-50
2023/03/05 08:24:28;;;;;;;;;23.67;18.67;;;;;9.25;59.50;101785.53;4960745;28;71912;-51
2023/03/05 08:26:53;;;;;;;;;28.67;22.00;;;;;9.26;59.49;101790.81;4954515;28;45272;-50
2023/03/05 08:29:19;;;;;;;;;20.67;18.00;;;;;9.33;59.34;101785.31;4956460;28;45357;-53
2023/03/05 08:31:45;;;;;;;;;21.33;18.33;;;;;9.42;59.36;101785.91;4944300;28;45373;-51
2023/03/05 08:34:11;;;;;;;;;18.67;15.67;;;;;9.51;59.23;101783.91;4958692;28;46171;-53
2023/03/05 08:36:36;;;;;;;;;21.67;18.33;;;;;9.55;58.67;101781.09;4950831;28;45332;-52
2023/03/05 08:39:02;;;;;;;;;24.67;19.67;;;;;9.57;58.90;101781.09;4957217;28;69140;-51
2023/03/05 08:41:28;;;;;;;;;24.33;20.67;;;;;9.63;58.92;101782.69;4956214;28;45671;-54
2023/03/05 08:43:53;;;;;;;;;21.67;17.33;;;;;9.72;58.74;101785.91;4961326;28;46261;-50
2023/03/05 08:46:18;;;;;;;;;22.33;22.33;;;;;9.79;58.63;101785.72;4959349;28;45388;-51
2023/03/05 08:48:44;;;;;;;;;12.33;10.33;;;;;9.72;58.26;101779.72;4956931;28;45341;-52
2023/03/05 08:51:14;;;;;;;;;27.00;22.33;;;;;9.65;58.49;101780.81;4955477;28;45415;-53
2023/03/05 08:53:41;;;;;;;;;32.67;23.33;;;;;9.64;58.57;101779.09;4954509;28;46469;-52
2023/03/05 08:56:07;;;;;;;;;23.67;21.00;;;;;9.69;58.50;101778.03;4951014;28;45385;-53
2023/03/05 08:58:32;;;;;;;;;23.33;22.00;;;;;9.77;58.27;101777.81;4961418;28;45455;-49
2023/03/05 09:00:57;;;;;;;;;22.00;19.00;;;;;9.87;58.39;101770.44;4955032;28;70019;-51
2023/03/05 09:03:23;;;;;;;;;24.67;20.00;;;;;9.95;58.19;101776.38;4948294;28;45353;-49
2023/03/05 09:05:50;;;;;;;;;25.67;22.33;;;;;9.99;58.14;101771.81;4954756;28;45366;-49
2023/03/05 09:08:15;;;;;;;;;27.67;19.33;;;;;10.06;57.83;101770.69;4955254;28;45338;-50
2023/03/05 09:10:42;;;;;;;;;29.00;22.00;;;;;10.14;57.69;101768.63;4955228;28;45433;-52
2023/03/05 09:13:08;;;;;;;;;23.67;22.33;;;;;10.23;57.50;101764.81;4960220;28;46506;-56
2023/03/05 09:15:33;;;;;;;;;27.33;22.00;;;;;10.37;57.14;101762.59;4953690;28;45258;-52
2023/03/05 09:17:59;;;;;;;;;20.00;19.00;;;;;10.43;57.07;101766.84;4954832;28;45211;-52
2023/03/05 09:20:24;;;;;;;;;23.00;22.00;;;;;10.48;56.87;101767.56;4960789;28;45286;-52
2023/03/05 09:22:50;;;;;;;;;23.33;19.67;;;;;10.49;56.73;101761.31;4959702;28;46032;-54
2023/03/05 09:25:15;;;;;;;;;22.67;16.67;;;;;10.50;56.52;101764.84;4959001;28;45513;-50
2023/03/05 09:27:42;;;;;;;;;24.00;20.67;;;;;10.50;56.50;101762.19;4953130;28;45342;-52
2023/03/05 09:30:08;;;;;;;;;22.67;18.67;;;;;10.54;56.44;101761.16;4954483;28;45644;-53
2023/03/05 09:32:33;;;;;;;;;21.33;19.33;;;;;10.54;56.26;101761.16;4959986;28;46084;-51
2023/03/05 09:34:59;;;;;;;;;19.00;18.00;;;;;10.51;56.27;101753.28;4952985;28;71818;-59
2023/03/05 09:37:24;;;;;;;;;24.33;21.67;;;;;10.44;56.20;101752.63;4960247;28;64337;-53
2023/03/05 09:39:49;;;;;;;;;22.67;19.00;;;;;10.40;55.95;101753.66;4952294;28;68901;-52
2023/03/05 09:42:27;;;;;;;;;21.67;16.33;;;;;10.39;56.10;101749.25;4953868;28;50246;-52
2023/03/05 09:45:18;;;;;;;;;22.00;17.33;;;;;10.47;56.36;101744.56;4952703;28;45223;-52
2023/03/05 09:47:56;;;;;;;;;25.00;19.00;;;;;10.54;56.51;101739.88;4961254;28;45407;-53
2023/03/05 09:50:30;;;;;;;;;21.33;19.00;;;;;10.59;55.99;101741.44;4960403;28;45440;-53
2023/03/05 09:53:01;;;;;;;;;22.33;17.33;;;;;10.63;55.60;101730.72;4955121;28;46089;-53
2023/03/05 09:55:39;;;;;;;;;17.33;17.00;;;;;10.67;55.36;101724.34;4958696;28;45171;-53
2023/03/05 09:58:17;;;;;;;;;24.00;17.00;;;;;10.71;55.52;101720.66;4953799;28;45381;-52
2023/03/05 10:00:46;;;;;;;;;22.33;19.00;;;;;10.75;55.10;101723.16;4943374;28;44887;-53
2023/03/05 10:03:15;;;;;;;;;24.33;20.33;;;;;10.78;55.13;101721.31;4946660;28;46435;-52
2023/03/05 10:06:04;;;;;;;;;23.67;21.67;;;;;10.82;55.26;101713.16;4953878;28;45374;-53
2023/03/05 10:09:09;;;;;;;;;18.33;17.00;;;;;10.82;54.87;101712.28;4953730;28;45239;-54
2023/03/05 10:11:56;;;;;;;;;20.67;18.67;;;;;10.80;54.87;101716.81;4966869;28;45374;-53
2023/03/05 10:14:33;;;;;;;;;20.33;16.00;;;;;10.75;54.79;101707.19;4959996;28;45389;-53
2023/03/05 10:17:22;;;;;;;;;28.00;19.00;;;;;10.72;54.86;101707.28;4948940;28;45429;-52
2023/03/05 10:19:53;;;;;;;;;24.33;19.67;;;;;10.68;54.99;101704.81;4953825;28;45480;-50
2023/03/05 10:22:20;;;;;;;;;20.33;16.00;;;;;10.63;55.21;101702.31;4950881;28;45503;-53
2023/03/05 10:24:55;;;;;;;;;17.00;16.00;;;;;10.56;55.05;101700.81;4956011;28;46490;-51
2023/03/05 10:27:32;;;;;;;;;24.67;22.33;;;;;10.46;55.29;101699.38;4972986;28;45354;-54
2023/03/05 10:30:16;;;;;;;;;18.00;14.00;;;;;10.30;55.46;101697.22;4953637;28;45415;-53
2023/03/05 10:32:59;;;;;;;;;17.67;14.33;;;;;10.23;56.08;101691.25;4953608;28;45397;-53
2023/03/05 10:35:38;;;;;;;;;23.33;19.00;;;;;10.24;56.51;101703.59;4956737;28;46341;-54
2023/03/05 10:38:03;;;;;;;;;27.00;21.67;;;;;10.26;56.33;101692.94;4945971;28;45373;-54
2023/03/05 10:40:40;;;;;;;;;22.00;17.00;;;;;10.31;56.53;101688.34;4960038;28;45602;-53
2023/03/05 10:43:35;;;;;;;;;21.00;19.00;;;;;10.41;56.42;101680.91;4954764;28;45687;-52
2023/03/05 10:46:02;;;;;;;;;19.67;17.00;;;;;10.52;56.14;101681.41;4950460;28;45359;-52
2023/03/05 10:48:37;;;;;;;;;19.67;13.33;;;;;10.61;56.52;101672.22;4956600;28;45466;-52
2023/03/05 10:51:17;;;;;;;;;21.67;16.33;;;;;10.72;56.04;101674.50;4952356;28;45863;-51
2023/03/05 10:54:17;;;;;;;;;20.00;18.33;;;;;10.81;56.38;101674.16;4949728;28;45323;-49
2023/03/05 10:56:42;;;;;;;;;19.67;16.67;;;;;10.88;55.82;101673.00;4951447;28;45424;-51
2023/03/05 10:59:08;;;;;;;;;21.67;16.00;;;;;10.87;55.65;101673.94;4952837;28;73130;-51
2023/03/05 11:01:36;;;;;;;;;18.00;16.33;;;;;10.86;55.52;101672.19;4953818;28;68278;-53
2023/03/05 11:04:06;;;;;;;;;18.00;16.00;;;;;10.88;55.55;101657.00;4956077;28;45404;-54
2023/03/05 11:06:44;;;;;;;;;18.67;17.00;;;;;10.91;55.31;101664.03;4958835;28;45448;-53
2023/03/05 11:09:12;;;;;;;;;20.33;15.67;;;;;10.97;55.71;101660.28;4947900;28;45363;-53
2023/03/05 11:11:38;;;;;;;;;5.00;1.00;;;;;11.04;55.71;101660.00;4952287;28;45397;-53
2023/03/05 11:14:03;;;;;;;;;23.00;19.33;;;;;11.13;55.50;101655.22;4953415;28;55718;-49
2023/03/05 11:16:33;;;;;;;;;21.00;18.33;;;;;11.15;54.84;101656.91;4958671;28;46181;-52
2023/03/05 11:19:16;;;;;;;;;15.67;15.67;;;;;11.20;54.77;101662.06;4957202;28;45597;-52
2023/03/05 11:21:42;;;;;;;;;17.00;12.00;;;;;11.25;54.66;101660.06;4953089;28;45194;-51
2023/03/05 11:24:18;;;;;;;;;17.67;15.67;;;;;11.24;54.08;101653.88;4936870;28;45413;-53
2023/03/05 11:26:49;;;;;;;;;12.67;12.67;;;;;11.17;54.00;101652.41;4954698;28;47027;-53
2023/03/05 11:29:26;;;;;;;;;15.33;15.00;;;;;11.15;53.97;101645.41;4953985;28;45421;-53
2023/03/05 11:31:53;;;;;;;;;20.00;14.33;;;;;11.11;53.15;101647.31;4951947;28;45584;-51
2023/03/05 11:34:18;;;;;;;;;19.33;13.67;;;;;11.03;53.95;101634.28;4959290;28;45838;-52
2023/03/05 11:36:49;;;;;;;;;14.00;11.33;;;;;10.97;53.60;101642.50;4956612;28;45496;-53
2023/03/05 11:39:16;;;;;;;;;10.00;10.00;;;;;10.87;53.08;101634.03;4954159;28;45408;-50
2023/03/05 11:41:42;;;;;;;;;12.33;12.33;;;;;10.79;52.73;101632.56;4952865;28;45552;-51
2023/03/05 11:44:16;;;;;;;;;15.67;11.67;;;;;10.69;53.16;101622.25;4954854;28;45879;-53
2023/03/05 11:47:02;;;;;;;;;15.00;13.67;;;;;10.64;53.18;101621.56;4958724;28;46405;-52
2023/03/05 11:49:29;;;;;;;;;12.67;12.67;;;;;10.61;52.89;101628.78;4956846;28;45298;-52
2023/03/05 11:52:05;;;;;;;;;14.33;12.00;;;;;10.58;53.14;101614.66;4960364;28;45330;-52
2023/03/05 11:54:59;;;;;;;;;10.67;10.67;;;;;10.57;52.85;101620.94;4955411;28;45405;-53
2023/03/05 11:57:26;;;;;;;;;17.00;16.00;;;;;10.57;52.89;101623.59;4959994;28;45269;-53
2023/03/05 11:59:54;;;;;;;;;15.00;13.00;;;;;10.51;52.88;101612.31;4960431;28;45513;-52
2023/03/05 12:02:22;;;;;;;;;10.33;10.33;;;;;10.49;52.53;101609.69;4962068;28;45382;-50
2023/03/05 12:04:48;;;;;;;;;11.00;9.00;;;;;10.43;52.53;101608.13;4956420;28;45747;-53
2023/03/05 12:07:18;;;;;;;;;13.33;10.33;;;;;10.40;52.58;101597.63;4957126;28;46258;-52
2023/03/05 12:09:45;;;;;;;;;12.00;10.00;;;;;10.39;52.43;101600.31;4961171;28;45296;-53
2023/03/05 12:12:52;;;;;;;;;11.67;10.33;;;;;10.41;52.40;101599.31;4960300;28;45357;-51
2023/03/05 12:15:23;;;;;;;;;14.33;9.67;;;;;10.39;52.72;101590.56;4957497;28;45385;-53
2023/03/05 12:17:59;;;;;;;;;9.33;7.00;;;;;10.39;52.23;101589.66;4955974;28;45359;-51
2023/03/05 12:20:54;;;;;;;;;9.67;8.00;;;;;10.37;52.18;101586.22;4956323;28;45292;-51
2023/03/05 12:23:21;;;;;;;;;11.00;10.67;;;;;10.35;51.63;101580.03;4955105;28;45333;-53
2023/03/05 12:25:47;;;;;;;;;8.67;8.00;;;;;10.30;51.89;101572.25;4956432;28;45520;-51
2023/03/05 12:28:35;;;;;;;;;13.67;12.00;;;;;10.23;52.05;101568.06;4958153;28;46235;-53
2023/03/05 12:31:07;;;;;;;;;14.33;9.33;;;;;10.19;52.36;101559.31;4963641;28;45369;-52
2023/03/05 12:33:38;;;;;;;;;10.67;10.33;;;;;10.20;52.22;101555.75;4951894;28;45416;-50
2023/03/05 12:36:21;;;;;;;;;14.33;12.33;;;;;10.19;51.70;101559.31;4959332;28;45405;-53
2023/03/05 12:38:51;;;;;;;;;12.00;9.00;;;;;10.16;51.50;101547.97;4955321;28;45409;-50
2023/03/05 12:41:23;;;;;;;;;9.00;8.00;;;;;10.16;51.71;101545.28;4954210;28;45382;-53
2023/03/05 12:44:03;;;;;;;;;13.67;12.00;;;;;10.15;51.69;101543.56;4958972;28;45477;-52
2023/03/05 12:46:30;;;;;;;;;12.00;11.33;;;;;10.15;51.82;101533.78;4951135;28;45412;-52
2023/03/05 12:48:55;;;;;;;;;13.33;10.33;;;;;10.21;51.90;101522.06;4958984;28;47051;-51
2023/03/05 12:51:32;;;;;;;;;14.33;12.67;;;;;10.30;51.92;101518.19;4950878;28;45320;-50
2023/03/05 12:54:22;;;;;;;;;13.67;10.33;;;;;10.32;51.92;101514.53;4956942;28;45342;-50
2023/03/05 12:56:47;;;;;;;;;14.67;13.33;;;;;10.34;51.74;101507.38;4957596;28;45485;-54
2023/03/05 12:59:15;;;;;;;;;15.67;14.33;;;;;10.32;51.14;101503.91;4961470;28;45801;-51
2023/03/05 13:01:45;;;;;;;;;8.00;8.00;;;;;10.30;51.06;101508.44;4955595;28;45303;-53
2023/03/05 13:04:18;;;;;;;;;9.33;8.67;;;;;10.29;51.53;101492.53;4951985;28;45508;-54
2023/03/05 13:06:44;;;;;;;;;12.67;12.00;;;;;10.28;51.13;101491.66;4960152;28;45466;-53
2023/03/05 13:09:19;;;;;;;;;14.33;13.00;;;;;10.25;50.76;101489.13;4958612;28;76220;-52
2023/03/05 13:11:47;;;;;;;;;14.00;11.67;;;;;10.21;51.33;101482.19;4958017;28;45274;-53
2023/03/05 13:14:31;;;;;;;;;13.00;12.67;;;;;10.18;50.68;101483.16;4951610;28;45345;-52
2023/03/05 13:16:57;;;;;;;;;16.00;12.00;;;;;10.14;51.24;101486.00;4956917;28;45567;-54
2023/03/05 13:19:22;;;;;;;;;18.33;14.00;;;;;10.13;50.79;101477.16;4958749;28;45921;-54
2023/03/05 13:22:02;;;;;;;;;19.67;13.00;;;;;10.13;51.29;101469.19;4955705;28;45322;-54
2023/03/05 13:24:28;;;;;;;;;11.67;10.67;;;;;10.13;51.43;101466.53;4959318;28;45260;-51
2023/03/05 13:26:54;;;;;;;;;20.33;14.67;;;;;10.18;51.71;101463.69;4960600;28;45413;-52
2023/03/05 13:29:29;;;;;;;;;17.67;14.67;;;;;10.23;51.43;101459.06;4959868;28;45329;-53
2023/03/05 13:31:58;;;;;;;;;15.67;14.00;;;;;10.29;51.06;101456.16;4954181;28;45363;-54
2023/03/05 13:34:32;;;;;;;;;16.00;15.33;;;;;10.32;50.94;101450.72;4953428;28;45390;-54
2023/03/05 13:37:14;;;;;;;;;13.00;13.00;;;;;10.33;51.01;101443.63;4955831;28;45370;-54
2023/03/05 13:40:02;;;;;;;;;13.33;11.00;;;;;10.41;50.99;101437.09;4947913;28;45421;-52
2023/03/05 13:42:33;;;;;;;;;13.67;12.00;;;;;10.46;50.21;101430.75;4954635;28;45403;-51
2023/03/05 13:45:17;;;;;;;;;16.00;15.00;;;;;10.49;50.06;101427.97;4957601;28;45302;-52
2023/03/05 13:47:54;;;;;;;;;13.33;11.67;;;;;10.48;50.26;101420.91;4953403;28;45532;-52
2023/03/05 13:50:28;;;;;;;;;14.67;13.00;;;;;10.50;49.72;101419.06;4954313;28;45314;-54
2023/03/05 13:52:54;;;;;;;;;15.00;13.00;;;;;10.53;49.76;101419.81;4948953;28;45424;-54
2023/03/05 13:55:19;;;;;;;;;15.67;14.67;;;;;10.53;49.37;101414.50;4960744;28;45294;-51
2023/03/05 13:57:54;;;;;;;;;19.33;15.33;;;;;10.52;49.54;101410.09;4959459;28;45444;-54
2023/03/05 14:00:34;;;;;;;;;19.33;14.67;;;;;10.53;49.40;101403.84;4939577;28;45366;-53
2023/03/05 14:03:19;;;;;;;;;22.00;16.33;;;;;10.55;49.47;101396.66;4955180;28;45408;-57
2023/03/05 14:05:44;;;;;;;;;18.67;14.67;;;;;10.57;49.62;101397.47;4948315;28;45370;-52
2023/03/05 14:08:24;;;;;;;;;15.67;15.67;;;;;10.61;49.16;101387.53;4952251;28;45479;-54
2023/03/05 14:10:50;;;;;;;;;17.33;15.67;;;;;10.67;48.87;101386.44;4947383;28;45903;-53
2023/03/05 14:13:18;;;;;;;;;11.33;9.33;;;;;10.69;49.21;101385.47;4954392;28;45359;-53
2023/03/05 14:16:02;;;;;;;;;12.33;9.33;;;;;10.72;48.73;101385.31;4958399;28;45429;-53
2023/03/05 14:18:28;;;;;;;;;10.67;10.67;;;;;10.71;49.08;101372.94;4952562;28;45619;-53
2023/03/05 14:21:02;;;;;;;;;18.67;14.00;;;;;10.71;48.82;101372.94;4953483;28;46143;-49
2023/03/05 14:23:36;;;;;;;;;14.33;12.00;;;;;10.65;48.06;101370.56;4959072;28;45326;-53
2023/03/05 14:26:16;;;;;;;;;14.67;11.00;;;;;10.64;48.76;101371.47;4958882;28;45477;-52
2023/03/05 14:28:42;;;;;;;;;16.00;15.67;;;;;10.66;48.85;101364.28;4955125;28;45498;-52
2023/03/05 14:31:15;;;;;;;;;19.67;14.00;;;;;10.74;48.20;101359.53;4956405;28;67185;-53
2023/03/05 14:33:40;;;;;;;;;16.00;12.33;;;;;10.81;48.68;101351.25;4954756;28;45520;-50
2023/03/05 14:36:07;;;;;;;;;14.67;14.33;;;;;10.84;48.53;101346.69;4958015;28;58583;-53
2023/03/05 14:38:33;;;;;;;;;15.67;13.00;;;;;10.89;48.56;101341.19;4958717;28;45307;-53
2023/03/05 14:41:18;;;;;;;;;12.67;9.00;;;;;10.95;48.50;101345.38;4958189;28;47001;-54
2023/03/05 14:43:43;;;;;;;;;12.00;11.00;;;;;11.04;48.61;101336.97;4958238;28;45382;-53
2023/03/05 14:46:08;;;;;;;;;12.33;12.33;;;;;11.13;48.37;101331.25;4956161;28;45474;-53
2023/03/05 14:48:34;;;;;;;;;11.67;11.33;;;;;11.17;48.33;101326.66;4953037;28;70443;-53
2023/03/05 14:51:00;;;;;;;;;14.33;11.67;;;;;11.23;48.27;101311.28;4952534;28;69216;-53
2023/03/05 14:53:28;;;;;;;;;12.00;11.00;;;;;11.33;48.21;101308.19;4954412;28;45397;-54
2023/03/05 14:55:55;;;;;;;;;12.00;9.00;;;;;11.40;48.38;101294.53;4959477;28;45422;-55
2023/03/05 14:58:27;;;;;;;;;9.33;9.33;;;;;11.52;47.80;101300.25;4959843;28;45578;-54
2023/03/05 15:00:53;;;;;;;;;15.00;11.00;;;;;11.58;47.85;101299.97;4953875;28;46240;-54
2023/03/05 15:03:21;;;;;;;;;13.00;13.00;;;;;11.63;47.65;101283.75;4952534;28;45377;-53
2023/03/05 15:05:49;;;;;;;;;10.67;10.00;;;;;11.64;47.40;101282.81;4948087;28;45373;-54
2023/03/05 15:08:21;;;;;;;;;11.00;9.33;;;;;11.58;46.87;101279.50;4958071;28;45660;-51
2023/03/05 15:10:47;;;;;;;;;9.67;8.67;;;;;11.56;47.13;101268.06;4952114;28;46257;-49
2023/03/05 15:13:14;;;;;;;;;9.33;9.00;;;;;11.60;47.22;101268.75;4953051;28;45322;-53
2023/03/05 15:15:40;;;;;;;;;10.00;10.00;;;;;11.63;46.87;101265.97;4935682;28;45466;-51
2023/03/05 15:18:06;;;;;;;;;11.00;11.00;;;;;11.65;47.11;101271.22;4954683;28;45652;-51
2023/03/05 15:20:31;;;;;;;;;12.67;10.00;;;;;11.63;47.13;101257.09;4961780;28;73815;-53
2023/03/05 15:22:57;;;;;;;;;15.67;15.67;;;;;11.64;47.00;101257.06;4957257;28;45464;-54
2023/03/05 15:25:25;;;;;;;;;9.33;9.33;;;;;11.62;46.59;101256.25;4957482;28;45317;-51
2023/03/05 15:27:50;;;;;;;;;11.67;10.67;;;;;11.58;46.90;101249.34;4956978;28;45462;-53
2023/03/05 15:30:25;;;;;;;;;7.67;7.00;;;;;11.56;46.11;101245.88;4956848;28;46903;-52
2023/03/05 15:32:52;;;;;;;;;13.33;9.33;;;;;11.51;46.74;101254.09;4954976;28;45867;-52
2023/03/05 15:35:18;;;;;;;;;11.33;11.33;;;;;11.53;46.76;101249.53;4963125;28;45613;-53
2023/03/05 15:37:43;;;;;;;;;13.00;10.67;;;;;11.55;46.57;101247.69;4961983;28;69082;-52
2023/03/05 15:40:09;;;;;;;;;13.33;9.33;;;;;11.51;46.45;101240.78;4954805;28;70757;-50
2023/03/05 15:42:34;;;;;;;;;9.00;9.00;;;;;11.50;46.31;101244.38;4954390;28;45306;-52
2023/03/05 15:44:59;;;;;;;;;10.33;8.33;;;;;11.49;46.33;101239.13;4949953;28;67255;-53
2023/03/05 15:47:25;;;;;;;;;11.67;8.00;;;;;11.49;46.42;101239.13;4960481;28;56480;-51
2023/03/05 15:49:50;;;;;;;;;14.67;10.33;;;;;11.50;46.28;101235.50;4948544;28;51255;-52
2023/03/05 15:52:15;;;;;;;;;14.33;10.67;;;;;11.47;46.43;101235.66;4954789;28;67993;-53
2023/03/05 15:54:41;;;;;;;;;15.00;14.67;;;;;11.42;46.13;101230.56;4962790;28;45285;-54
2023/03/05 15:57:09;;;;;;;;;13.33;11.33;;;;;11.37;46.05;101233.44;4961400;28;69213;-51
2023/03/05 15:59:34;;;;;;;;;14.67;9.00;;;;;11.30;46.01;101234.63;4955313;28;46150;-53
2023/03/05 16:02:00;;;;;;;;;16.00;10.67;;;;;11.22;46.26;101220.81;4953458;28;72449;-51
2023/03/05 16:04:27;;;;;;;;;13.33;10.67;;;;;11.13;46.24;101226.56;4962545;28;45353;-51
2023/03/05 16:06:52;;;;;;;;;14.33;10.00;;;;;11.05;46.15;101227.75;4961946;28;45437;-52
2023/03/05 16:09:19;;;;;;;;;12.33;9.67;;;;;11.00;46.41;101227.13;4956030;28;74918;-52
2023/03/05 16:11:46;;;;;;;;;12.00;12.00;;;;;10.90;46.23;101232.00;4961994;28;45390;-50
2023/03/05 16:14:15;;;;;;;;;8.00;7.33;;;;;10.82;46.10;101218.16;4961967;28;45455;-52
2023/03/05 16:16:41;;;;;;;;;9.67;8.33;;;;;10.73;46.51;101214.13;4956727;28;45465;-52
2023/03/05 16:19:08;;;;;;;;;7.33;7.33;;;;;10.67;46.32;101211.72;4959857;28;46050;-52
2023/03/05 16:21:34;;;;;;;;;7.00;7.00;;;;;10.59;46.20;101203.22;4959881;28;45306;-53
2023/03/05 16:23:59;;;;;;;;;8.67;7.67;;;;;10.54;46.28;101207.88;4958125;28;45184;-52
2023/03/05 16:26:25;;;;;;;;;11.33;11.33;;;;;10.48;46.52;101208.13;4954647;28;50017;-51
2023/03/05 16:28:50;;;;;;;;;9.00;9.00;;;;;10.40;46.26;101196.03;4951460;28;69536;-50
2023/03/05 16:31:15;;;;;;;;;8.00;7.33;;;;;10.35;46.41;101194.44;4956641;28;45401;-51
2023/03/05 16:33:41;;;;;;;;;12.00;10.67;;;;;10.29;46.48;101195.59;4953777;28;68697;-51
2023/03/05 16:36:10;;;;;;;;;9.00;9.00;;;;;10.25;46.70;101196.66;4954699;28;67200;-52
2023/03/05 16:38:35;;;;;;;;;10.67;9.00;;;;;10.22;46.80;101196.75;4957111;28;46347;-54
2023/03/05 16:41:00;;;;;;;;;13.67;9.33;;;;;10.17;46.98;101188.13;4955774;28;73032;-51
2023/03/05 16:43:26;;;;;;;;;13.00;11.00;;;;;10.09;47.19;101178.69;4953579;28;67973;-53
2023/03/05 16:45:51;;;;;;;;;15.00;9.67;;;;;10.04;47.38;101182.47;4959974;28;45451;-51
2023/03/05 16:48:16;;;;;;;;;17.33;10.33;;;;;10.00;47.49;101172.88;4958973;28;71050;-52
2023/03/05 16:50:41;;;;;;;;;12.00;12.00;;;;;9.97;47.70;101175.69;4957869;28;45400;-51
2023/03/05 16:53:07;;;;;;;;;15.67;13.67;;;;;9.94;47.58;101174.00;4958877;28;68293;-53
2023/03/05 16:55:32;;;;;;;;;14.00;13.00;;;;;9.91;47.93;101167.03;4957684;28;45923;-51
2023/03/05 16:57:58;;;;;;;;;12.00;11.33;;;;;9.89;47.72;101162.72;4954275;28;46089;-52
2023/03/05 17:00:23;;;;;;;;;15.00;13.33;;;;;9.82;47.73;101151.47;4960289;28;72549;-52
2023/03/05 17:02:49;;;;;;;;;13.67;12.00;;;;;9.75;48.16;101156.19;4960780;28;45362;-52
2023/03/05 17:05:14;;;;;;;;;13.33;13.33;;;;;9.71;48.37;101149.25;4955857;28;45357;-50
2023/03/05 17:07:39;;;;;;;;;14.33;11.67;;;;;9.70;48.35;101142.22;4953964;28;73452;-53
2023/03/05 17:10:05;;;;;;;;;15.33;14.33;;;;;9.66;48.45;101145.03;4960422;28;56499;-51
2023/03/05 17:12:31;;;;;;;;;16.33;14.00;;;;;9.64;48.69;101153.09;4961292;28;45361;-53
2023/03/05 17:14:56;;;;;;;;;13.00;12.33;;;;;9.62;48.49;101140.78;4952939;28;64183;-53
2023/03/05 17:17:21;;;;;;;;;15.00;13.00;;;;;9.61;48.34;101142.59;4959642;28;48504;-52
2023/03/05 17:19:47;;;;;;;;;15.33;13.00;;;;;9.60;48.81;101147.03;4958841;28;71604;-51
2023/03/05 17:22:14;;;;;;;;;11.67;11.67;;;;;9.59;48.96;101144.44;4957678;28;45401;-50
2023/03/05 17:24:41;;;;;;;;;14.00;14.00;;;;;9.57;49.06;101147.16;4960165;28;45572;-51